sensor_id;sensor_type;location;lat;lon;timestamp;temperature;humidity
65826;DHT22;52586;-43.152;172.732;2022-07-06T00:02:12;14.90;56.00
65826;DHT22;52586;-43.152;172.732;2022-07-06T00:04:43;14.90;56.10
65826;DHT22;52586;-43.152;172.732;2022-07-06T00:07:13;14.90;56.10
65826;DHT22;52586;-43.152;172.732;2022-07-06T00:09:44;14.90;56.10
65826;DHT22;52586;-43.152;172.732;2022-07-06T00:12:15;14.90;56.20
65826;DHT22;52586;-43.152;172.732;2022-07-06T00:14:48;14.90;56.20
65826;DHT22;52586;-43.152;172.732;2022-07-06T00:17:18;15.00;56.20
65826;DHT22;52586;-43.152;172.732;2022-07-06T00:19:49;15.00;56.20
65826;DHT22;52586;-43.152;172.732;2022-07-06T00:22:20;15.00;56.10
65826;DHT22;52586;-43.152;172.732;2022-07-06T00:24:50;15.00;56.10
65826;DHT22;52586;-43.152;172.732;2022-07-06T00:27:21;15.10;56.10
65826;DHT22;52586;-43.152;172.732;2022-07-06T00:29:53;15.10;56.10
65826;DHT22;52586;-43.152;172.732;2022-07-06T00:32:24;15.10;56.00
65826;DHT22;52586;-43.152;172.732;2022-07-06T00:34:55;15.10;56.10
65826;DHT22;52586;-43.152;172.732;2022-07-06T00:37:26;15.10;56.20
65826;DHT22;52586;-43.152;172.732;2022-07-06T00:39:57;15.10;56.20
65826;DHT22;52586;-43.152;172.732;2022-07-06T00:42:27;15.20;56.30
65826;DHT22;52586;-43.152;172.732;2022-07-06T00:45:00;15.20;56.20
65826;DHT22;52586;-43.152;172.732;2022-07-06T00:47:30;15.20;56.30
65826;DHT22;52586;-43.152;172.732;2022-07-06T00:50:01;15.20;56.30
65826;DHT22;52586;-43.152;172.732;2022-07-06T00:52:46;15.20;56.30
65826;DHT22;52586;-43.152;172.732;2022-07-06T00:55:19;15.30;56.30
65826;DHT22;52586;-43.152;172.732;2022-07-06T00:57:50;15.30;56.30
65826;DHT22;52586;-43.152;172.732;2022-07-06T01:00:24;15.30;56.30
65826;DHT22;52586;-43.152;172.732;2022-07-06T01:02:55;15.30;56.30
65826;DHT22;52586;-43.152;172.732;2022-07-06T01:05:26;15.40;56.20
65826;DHT22;52586;-43.152;172.732;2022-07-06T01:07:57;15.40;56.20
65826;DHT22;52586;-43.152;172.732;2022-07-06T01:10:28;15.40;56.20
65826;DHT22;52586;-43.152;172.732;2022-07-06T01:12:59;15.40;56.30
65826;DHT22;52586;-43.152;172.732;2022-07-06T01:15:31;15.40;56.40
65826;DHT22;52586;-43.152;172.732;2022-07-06T01:18:03;15.50;56.60
65826;DHT22;52586;-43.152;172.732;2022-07-06T01:20:36;15.50;56.60
65826;DHT22;52586;-43.152;172.732;2022-07-06T01:23:06;15.50;56.70
65826;DHT22;52586;-43.152;172.732;2022-07-06T01:25:37;15.60;56.60
65826;DHT22;52586;-43.152;172.732;2022-07-06T01:28:08;15.60;56.50
65826;DHT22;52586;-43.152;172.732;2022-07-06T01:30:38;15.60;57.00
65826;DHT22;52586;-43.152;172.732;2022-07-06T01:33:09;15.60;56.40
65826;DHT22;52586;-43.152;172.732;2022-07-06T01:35:42;15.70;56.40
65826;DHT22;52586;-43.152;172.732;2022-07-06T01:38:12;15.70;56.40
65826;DHT22;52586;-43.152;172.732;2022-07-06T01:40:43;15.70;56.50
65826;DHT22;52586;-43.152;172.732;2022-07-06T01:43:14;15.70;56.50
65826;DHT22;52586;-43.152;172.732;2022-07-06T01:45:44;15.70;56.40
65826;DHT22;52586;-43.152;172.732;2022-07-06T01:48:15;15.80;56.40
65826;DHT22;52586;-43.152;172.732;2022-07-06T01:50:48;15.80;56.40
65826;DHT22;52586;-43.152;172.732;2022-07-06T01:53:18;15.80;56.30
65826;DHT22;52586;-43.152;172.732;2022-07-06T01:55:49;15.80;56.20
65826;DHT22;52586;-43.152;172.732;2022-07-06T01:58:20;15.90;56.10
65826;DHT22;52586;-43.152;172.732;2022-07-06T02:00:51;15.90;56.10
65826;DHT22;52586;-43.152;172.732;2022-07-06T02:03:21;15.90;56.00
65826;DHT22;52586;-43.152;172.732;2022-07-06T02:05:54;15.90;56.00
65826;DHT22;52586;-43.152;172.732;2022-07-06T02:08:25;16.00;56.00
65826;DHT22;52586;-43.152;172.732;2022-07-06T02:10:56;16.00;55.90
65826;DHT22;52586;-43.152;172.732;2022-07-06T02:13:27;16.00;55.90
65826;DHT22;52586;-43.152;172.732;2022-07-06T02:15:57;16.00;55.90
65826;DHT22;52586;-43.152;172.732;2022-07-06T02:18:28;16.00;55.90
65826;DHT22;52586;-43.152;172.732;2022-07-06T02:21:01;16.10;55.90
65826;DHT22;52586;-43.152;172.732;2022-07-06T02:23:32;16.10;55.90
65826;DHT22;52586;-43.152;172.732;2022-07-06T02:26:02;16.10;55.80
65826;DHT22;52586;-43.152;172.732;2022-07-06T02:28:33;16.10;55.90
65826;DHT22;52586;-43.152;172.732;2022-07-06T02:31:04;16.10;55.80
65826;DHT22;52586;-43.152;172.732;2022-07-06T02:33:35;16.20;55.80
65826;DHT22;52586;-43.152;172.732;2022-07-06T02:36:08;16.20;56.40
65826;DHT22;52586;-43.152;172.732;2022-07-06T02:38:38;16.20;55.80
65826;DHT22;52586;-43.152;172.732;2022-07-06T02:41:09;16.30;55.80
65826;DHT22;52586;-43.152;172.732;2022-07-06T02:43:40;16.30;55.70
65826;DHT22;52586;-43.152;172.732;2022-07-06T02:46:11;16.30;55.70
65826;DHT22;52586;-43.152;172.732;2022-07-06T02:48:41;16.30;55.70
65826;DHT22;52586;-43.152;172.732;2022-07-06T02:51:14;16.40;55.70
65826;DHT22;52586;-43.152;172.732;2022-07-06T02:53:45;16.40;55.70
65826;DHT22;52586;-43.152;172.732;2022-07-06T02:56:15;16.40;55.70
65826;DHT22;52586;-43.152;172.732;2022-07-06T02:58:46;16.40;55.70
65826;DHT22;52586;-43.152;172.732;2022-07-06T03:01:17;16.50;55.70
65826;DHT22;52586;-43.152;172.732;2022-07-06T03:03:47;16.50;55.80
65826;DHT22;52586;-43.152;172.732;2022-07-06T03:06:20;16.50;55.70
65826;DHT22;52586;-43.152;172.732;2022-07-06T03:08:51;16.50;55.70
65826;DHT22;52586;-43.152;172.732;2022-07-06T03:11:21;16.50;55.70
65826;DHT22;52586;-43.152;172.732;2022-07-06T03:13:52;16.50;55.70
65826;DHT22;52586;-43.152;172.732;2022-07-06T03:16:23;16.50;55.70
65826;DHT22;52586;-43.152;172.732;2022-07-06T03:18:53;16.60;55.70
65826;DHT22;52586;-43.152;172.732;2022-07-06T03:21:26;16.60;55.70
65826;DHT22;52586;-43.152;172.732;2022-07-06T03:23:57;16.60;55.70
65826;DHT22;52586;-43.152;172.732;2022-07-06T03:26:27;16.70;55.70
65826;DHT22;52586;-43.152;172.732;2022-07-06T03:28:58;16.70;55.70
65826;DHT22;52586;-43.152;172.732;2022-07-06T03:31:29;16.70;55.70
65826;DHT22;52586;-43.152;172.732;2022-07-06T03:33:59;16.80;55.80
65826;DHT22;52586;-43.152;172.732;2022-07-06T03:36:32;16.80;55.70
65826;DHT22;52586;-43.152;172.732;2022-07-06T03:39:03;16.80;55.70
65826;DHT22;52586;-43.152;172.732;2022-07-06T03:41:34;16.80;55.70
65826;DHT22;52586;-43.152;172.732;2022-07-06T03:44:05;16.80;55.70
65826;DHT22;52586;-43.152;172.732;2022-07-06T03:46:35;16.80;55.70
65826;DHT22;52586;-43.152;172.732;2022-07-06T03:49:06;16.90;55.70
65826;DHT22;52586;-43.152;172.732;2022-07-06T03:51:38;16.90;55.70
65826;DHT22;52586;-43.152;172.732;2022-07-06T03:54:09;16.90;55.70
65826;DHT22;52586;-43.152;172.732;2022-07-06T03:56:40;16.90;55.60
65826;DHT22;52586;-43.152;172.732;2022-07-06T03:59:10;16.90;55.60
65826;DHT22;52586;-43.152;172.732;2022-07-06T04:01:42;16.90;55.60
65826;DHT22;52586;-43.152;172.732;2022-07-06T04:04:12;17.00;55.60
65826;DHT22;52586;-43.152;172.732;2022-07-06T04:06:45;16.90;55.50
65826;DHT22;52586;-43.152;172.732;2022-07-06T04:09:16;17.00;55.60
65826;DHT22;52586;-43.152;172.732;2022-07-06T04:11:47;17.00;55.50
65826;DHT22;52586;-43.152;172.732;2022-07-06T04:14:19;17.00;55.50
65826;DHT22;52586;-43.152;172.732;2022-07-06T04:16:49;17.00;55.50
65826;DHT22;52586;-43.152;172.732;2022-07-06T04:19:20;17.00;55.50
65826;DHT22;52586;-43.152;172.732;2022-07-06T04:21:53;17.10;55.50
65826;DHT22;52586;-43.152;172.732;2022-07-06T04:24:24;17.10;55.50
65826;DHT22;52586;-43.152;172.732;2022-07-06T04:26:54;17.10;55.50
65826;DHT22;52586;-43.152;172.732;2022-07-06T04:29:25;17.10;55.50
65826;DHT22;52586;-43.152;172.732;2022-07-06T04:31:56;17.10;55.50
65826;DHT22;52586;-43.152;172.732;2022-07-06T04:34:26;17.10;55.50
65826;DHT22;52586;-43.152;172.732;2022-07-06T04:36:59;17.00;55.40
65826;DHT22;52586;-43.152;172.732;2022-07-06T04:39:30;17.10;55.50
65826;DHT22;52586;-43.152;172.732;2022-07-06T04:42:00;17.10;55.40
65826;DHT22;52586;-43.152;172.732;2022-07-06T04:44:31;17.10;55.40
65826;DHT22;52586;-43.152;172.732;2022-07-06T04:47:02;17.00;55.30
65826;DHT22;52586;-43.152;172.732;2022-07-06T04:49:32;17.00;55.30
65826;DHT22;52586;-43.152;172.732;2022-07-06T04:52:05;17.00;55.30
65826;DHT22;52586;-43.152;172.732;2022-07-06T04:54:36;17.00;55.40
65826;DHT22;52586;-43.152;172.732;2022-07-06T04:57:14;17.00;55.30
65826;DHT22;52586;-43.152;172.732;2022-07-06T04:59:44;17.00;55.50
65826;DHT22;52586;-43.152;172.732;2022-07-06T05:02:15;17.00;55.60
65826;DHT22;52586;-43.152;172.732;2022-07-06T05:04:46;17.00;55.60
65826;DHT22;52586;-43.152;172.732;2022-07-06T05:07:18;17.00;55.60
65826;DHT22;52586;-43.152;172.732;2022-07-06T05:09:49;17.00;55.60
65826;DHT22;52586;-43.152;172.732;2022-07-06T05:12:20;17.00;55.60
65826;DHT22;52586;-43.152;172.732;2022-07-06T05:14:51;17.00;55.60
65826;DHT22;52586;-43.152;172.732;2022-07-06T05:17:21;17.00;55.60
65826;DHT22;52586;-43.152;172.732;2022-07-06T05:19:52;16.90;55.50
65826;DHT22;52586;-43.152;172.732;2022-07-06T05:22:25;16.90;55.40
65826;DHT22;52586;-43.152;172.732;2022-07-06T05:24:55;16.90;55.40
65826;DHT22;52586;-43.152;172.732;2022-07-06T05:27:26;16.80;55.50
65826;DHT22;52586;-43.152;172.732;2022-07-06T05:29:57;16.80;55.50
65826;DHT22;52586;-43.152;172.732;2022-07-06T05:32:27;16.80;55.50
65826;DHT22;52586;-43.152;172.732;2022-07-06T05:34:58;16.80;55.50
65826;DHT22;52586;-43.152;172.732;2022-07-06T05:37:31;16.80;55.60
65826;DHT22;52586;-43.152;172.732;2022-07-06T05:40:01;16.80;55.60
65826;DHT22;52586;-43.152;172.732;2022-07-06T05:42:32;16.80;55.60
65826;DHT22;52586;-43.152;172.732;2022-07-06T05:45:03;16.70;55.60
65826;DHT22;52586;-43.152;172.732;2022-07-06T05:47:34;16.70;55.60
65826;DHT22;52586;-43.152;172.732;2022-07-06T05:50:20;16.70;55.60
65826;DHT22;52586;-43.152;172.732;2022-07-06T05:52:59;16.70;55.50
65826;DHT22;52586;-43.152;172.732;2022-07-06T05:55:30;16.70;55.60
65826;DHT22;52586;-43.152;172.732;2022-07-06T05:58:00;16.60;55.50
65826;DHT22;52586;-43.152;172.732;2022-07-06T06:00:31;16.60;55.50
65826;DHT22;52586;-43.152;172.732;2022-07-06T06:03:02;16.60;55.50
65826;DHT22;52586;-43.152;172.732;2022-07-06T06:05:33;16.60;55.50
65826;DHT22;52586;-43.152;172.732;2022-07-06T06:08:05;16.50;55.40
65826;DHT22;52586;-43.152;172.732;2022-07-06T06:10:37;16.50;55.50
65826;DHT22;52586;-43.152;172.732;2022-07-06T06:13:07;16.50;55.50
65826;DHT22;52586;-43.152;172.732;2022-07-06T06:15:38;16.50;55.40
65826;DHT22;52586;-43.152;172.732;2022-07-06T06:18:09;16.50;55.50
65826;DHT22;52586;-43.152;172.732;2022-07-06T06:20:40;16.40;55.50
65826;DHT22;52586;-43.152;172.732;2022-07-06T06:23:12;16.40;55.50
65826;DHT22;52586;-43.152;172.732;2022-07-06T06:25:43;16.40;55.50
65826;DHT22;52586;-43.152;172.732;2022-07-06T06:28:14;16.30;55.50
65826;DHT22;52586;-43.152;172.732;2022-07-06T06:30:45;16.30;55.50
65826;DHT22;52586;-43.152;172.732;2022-07-06T06:33:16;16.30;55.50
65826;DHT22;52586;-43.152;172.732;2022-07-06T06:35:48;16.30;55.50
65826;DHT22;52586;-43.152;172.732;2022-07-06T06:38:21;16.30;55.50
65826;DHT22;52586;-43.152;172.732;2022-07-06T06:40:53;16.20;56.20
65826;DHT22;52586;-43.152;172.732;2022-07-06T06:43:24;16.20;55.60
65826;DHT22;52586;-43.152;172.732;2022-07-06T06:45:55;16.20;55.60
65826;DHT22;52586;-43.152;172.732;2022-07-06T06:48:25;16.20;55.60
65826;DHT22;52586;-43.152;172.732;2022-07-06T06:50:56;16.10;55.50
65826;DHT22;52586;-43.152;172.732;2022-07-06T06:53:29;16.10;55.50
65826;DHT22;52586;-43.152;172.732;2022-07-06T06:55:59;16.10;55.50
65826;DHT22;52586;-43.152;172.732;2022-07-06T06:58:30;16.00;55.40
65826;DHT22;52586;-43.152;172.732;2022-07-06T07:01:01;16.00;55.40
65826;DHT22;52586;-43.152;172.732;2022-07-06T07:03:32;16.00;55.50
65826;DHT22;52586;-43.152;172.732;2022-07-06T07:06:02;16.00;55.50
65826;DHT22;52586;-43.152;172.732;2022-07-06T07:08:35;16.00;55.50
65826;DHT22;52586;-43.152;172.732;2022-07-06T07:11:06;15.90;55.40
65826;DHT22;52586;-43.152;172.732;2022-07-06T07:13:36;15.90;55.40
65826;DHT22;52586;-43.152;172.732;2022-07-06T07:16:07;15.90;55.30
65826;DHT22;52586;-43.152;172.732;2022-07-06T07:18:38;15.90;55.30
65826;DHT22;52586;-43.152;172.732;2022-07-06T07:21:09;15.90;55.40
65826;DHT22;52586;-43.152;172.732;2022-07-06T07:23:41;15.90;55.30
65826;DHT22;52586;-43.152;172.732;2022-07-06T07:26:12;15.80;55.30
65826;DHT22;52586;-43.152;172.732;2022-07-06T07:28:43;15.80;55.30
65826;DHT22;52586;-43.152;172.732;2022-07-06T07:31:14;15.80;55.30
65826;DHT22;52586;-43.152;172.732;2022-07-06T07:33:45;15.80;55.30
65826;DHT22;52586;-43.152;172.732;2022-07-06T07:36:16;15.70;55.30
65826;DHT22;52586;-43.152;172.732;2022-07-06T07:38:48;15.70;55.30
65826;DHT22;52586;-43.152;172.732;2022-07-06T07:41:19;15.70;55.30
65826;DHT22;52586;-43.152;172.732;2022-07-06T07:43:50;15.60;55.30
65826;DHT22;52586;-43.152;172.732;2022-07-06T07:46:20;15.60;55.30
65826;DHT22;52586;-43.152;172.732;2022-07-06T07:48:51;15.60;55.40
65826;DHT22;52586;-43.152;172.732;2022-07-06T07:51:22;15.60;55.40
65826;DHT22;52586;-43.152;172.732;2022-07-06T07:53:54;15.60;55.40
65826;DHT22;52586;-43.152;172.732;2022-07-06T07:56:25;15.60;55.40
65826;DHT22;52586;-43.152;172.732;2022-07-06T07:58:55;15.60;55.40
65826;DHT22;52586;-43.152;172.732;2022-07-06T08:01:26;15.50;55.30
65826;DHT22;52586;-43.152;172.732;2022-07-06T08:03:57;15.50;55.30
65826;DHT22;52586;-43.152;172.732;2022-07-06T08:06:28;15.60;55.40
65826;DHT22;52586;-43.152;172.732;2022-07-06T08:09:00;15.50;55.40
65826;DHT22;52586;-43.152;172.732;2022-07-06T08:11:32;15.50;55.40
65826;DHT22;52586;-43.152;172.732;2022-07-06T08:14:03;15.40;55.40
65826;DHT22;52586;-43.152;172.732;2022-07-06T08:16:34;15.40;55.40
65826;DHT22;52586;-43.152;172.732;2022-07-06T08:19:05;15.40;55.50
65826;DHT22;52586;-43.152;172.732;2022-07-06T08:21:36;15.40;55.50
65826;DHT22;52586;-43.152;172.732;2022-07-06T08:24:09;15.40;55.50
65826;DHT22;52586;-43.152;172.732;2022-07-06T08:26:39;15.30;55.50
65826;DHT22;52586;-43.152;172.732;2022-07-06T08:29:10;15.30;55.50
65826;DHT22;52586;-43.152;172.732;2022-07-06T08:31:41;15.30;55.50
65826;DHT22;52586;-43.152;172.732;2022-07-06T08:34:11;15.30;55.60
65826;DHT22;52586;-43.152;172.732;2022-07-06T08:36:42;15.30;55.50
65826;DHT22;52586;-43.152;172.732;2022-07-06T08:39:15;15.30;55.50
65826;DHT22;52586;-43.152;172.732;2022-07-06T08:41:48;15.20;55.40
65826;DHT22;52586;-43.152;172.732;2022-07-06T08:44:19;15.20;55.40
65826;DHT22;52586;-43.152;172.732;2022-07-06T08:46:51;15.20;55.40
65826;DHT22;52586;-43.152;172.732;2022-07-06T08:49:23;15.20;55.40
65826;DHT22;52586;-43.152;172.732;2022-07-06T08:51:54;15.20;55.40
65826;DHT22;52586;-43.152;172.732;2022-07-06T08:54:28;15.20;55.40
65826;DHT22;52586;-43.152;172.732;2022-07-06T08:56:59;15.20;55.40
65826;DHT22;52586;-43.152;172.732;2022-07-06T08:59:30;15.10;55.50
65826;DHT22;52586;-43.152;172.732;2022-07-06T09:02:01;15.10;55.50
65826;DHT22;52586;-43.152;172.732;2022-07-06T09:04:33;15.10;55.50
65826;DHT22;52586;-43.152;172.732;2022-07-06T09:07:05;15.10;55.50
65826;DHT22;52586;-43.152;172.732;2022-07-06T09:09:38;15.00;55.50
65826;DHT22;52586;-43.152;172.732;2022-07-06T09:12:12;15.00;55.50
65826;DHT22;52586;-43.152;172.732;2022-07-06T09:14:43;15.00;55.50
65826;DHT22;52586;-43.152;172.732;2022-07-06T09:17:14;15.00;55.50
65826;DHT22;52586;-43.152;172.732;2022-07-06T09:19:46;15.00;55.50
65826;DHT22;52586;-43.152;172.732;2022-07-06T09:22:27;15.00;55.50
65826;DHT22;52586;-43.152;172.732;2022-07-06T09:25:08;14.90;56.10
65826;DHT22;52586;-43.152;172.732;2022-07-06T09:27:39;14.90;55.40
65826;DHT22;52586;-43.152;172.732;2022-07-06T09:30:11;14.90;55.40
65826;DHT22;52586;-43.152;172.732;2022-07-06T09:32:42;14.90;55.40
65826;DHT22;52586;-43.152;172.732;2022-07-06T09:35:21;14.90;55.40
65826;DHT22;52586;-43.152;172.732;2022-07-06T09:38:02;14.90;55.50
65826;DHT22;52586;-43.152;172.732;2022-07-06T09:40:36;14.80;55.50
65826;DHT22;52586;-43.152;172.732;2022-07-06T09:43:12;14.90;55.50
65826;DHT22;52586;-43.152;172.732;2022-07-06T09:45:43;14.80;56.10
65826;DHT22;52586;-43.152;172.732;2022-07-06T09:48:15;14.80;57.10
65826;DHT22;52586;-43.152;172.732;2022-07-06T09:50:49;14.90;57.60
65826;DHT22;52586;-43.152;172.732;2022-07-06T09:53:21;14.90;57.50
65826;DHT22;52586;-43.152;172.732;2022-07-06T09:55:55;14.90;57.20
65826;DHT22;52586;-43.152;172.732;2022-07-06T09:58:25;14.90;57.20
65826;DHT22;52586;-43.152;172.732;2022-07-06T10:00:56;14.90;57.10
65826;DHT22;52586;-43.152;172.732;2022-07-06T10:03:27;14.80;57.00
65826;DHT22;52586;-43.152;172.732;2022-07-06T10:05:58;14.80;57.60
65826;DHT22;52586;-43.152;172.732;2022-07-06T10:08:30;14.80;56.90
65826;DHT22;52586;-43.152;172.732;2022-07-06T10:11:05;14.80;56.80
65826;DHT22;52586;-43.152;172.732;2022-07-06T10:13:41;14.80;56.80
65826;DHT22;52586;-43.152;172.732;2022-07-06T10:16:13;14.80;56.80
65826;DHT22;52586;-43.152;172.732;2022-07-06T10:18:44;14.80;56.70
65826;DHT22;52586;-43.152;172.732;2022-07-06T10:21:15;14.80;56.70
65826;DHT22;52586;-43.152;172.732;2022-07-06T10:23:47;14.70;56.60
65826;DHT22;52586;-43.152;172.732;2022-07-06T10:26:20;14.70;56.50
65826;DHT22;52586;-43.152;172.732;2022-07-06T10:28:52;14.70;56.50
65826;DHT22;52586;-43.152;172.732;2022-07-06T10:31:23;14.70;56.50
65826;DHT22;52586;-43.152;172.732;2022-07-06T10:33:54;14.70;56.40
65826;DHT22;52586;-43.152;172.732;2022-07-06T10:36:25;14.70;56.40
65826;DHT22;52586;-43.152;172.732;2022-07-06T10:38:56;14.60;56.40
65826;DHT22;52586;-43.152;172.732;2022-07-06T10:41:49;14.60;56.40
65826;DHT22;52586;-43.152;172.732;2022-07-06T10:44:19;14.60;56.40
65826;DHT22;52586;-43.152;172.732;2022-07-06T10:46:55;14.60;56.40
65826;DHT22;52586;-43.152;172.732;2022-07-06T10:49:26;14.50;56.30
65826;DHT22;52586;-43.152;172.732;2022-07-06T10:51:58;14.50;56.20
65826;DHT22;52586;-43.152;172.732;2022-07-06T10:54:40;14.50;56.20
65826;DHT22;52586;-43.152;172.732;2022-07-06T10:57:14;14.50;56.20
65826;DHT22;52586;-43.152;172.732;2022-07-06T11:00:00;14.50;56.10
65826;DHT22;52586;-43.152;172.732;2022-07-06T11:02:39;14.50;56.10
65826;DHT22;52586;-43.152;172.732;2022-07-06T11:05:14;14.50;56.10
65826;DHT22;52586;-43.152;172.732;2022-07-06T11:08:03;14.50;56.10
65826;DHT22;52586;-43.152;172.732;2022-07-06T11:10:47;14.40;56.00
65826;DHT22;52586;-43.152;172.732;2022-07-06T11:13:29;14.40;56.10
65826;DHT22;52586;-43.152;172.732;2022-07-06T11:16:03;14.40;56.10
65826;DHT22;52586;-43.152;172.732;2022-07-06T11:18:40;14.40;56.00
65826;DHT22;52586;-43.152;172.732;2022-07-06T11:21:21;14.30;56.00
65826;DHT22;52586;-43.152;172.732;2022-07-06T11:23:52;14.40;56.00
65826;DHT22;52586;-43.152;172.732;2022-07-06T11:26:23;14.30;55.90
65826;DHT22;52586;-43.152;172.732;2022-07-06T11:28:57;14.30;56.00
65826;DHT22;52586;-43.152;172.732;2022-07-06T11:31:28;14.30;55.90
65826;DHT22;52586;-43.152;172.732;2022-07-06T11:33:59;14.30;55.90
65826;DHT22;52586;-43.152;172.732;2022-07-06T11:36:30;14.30;55.90
65826;DHT22;52586;-43.152;172.732;2022-07-06T11:39:00;14.30;55.90
65826;DHT22;52586;-43.152;172.732;2022-07-06T11:41:33;14.30;55.90
65826;DHT22;52586;-43.152;172.732;2022-07-06T11:44:06;14.20;55.80
65826;DHT22;52586;-43.152;172.732;2022-07-06T11:46:37;14.20;55.70
65826;DHT22;52586;-43.152;172.732;2022-07-06T11:49:08;14.20;55.80
65826;DHT22;52586;-43.152;172.732;2022-07-06T11:51:40;14.20;55.80
65826;DHT22;52586;-43.152;172.732;2022-07-06T11:54:12;14.20;55.70
65826;DHT22;52586;-43.152;172.732;2022-07-06T11:56:48;14.10;55.80
65826;DHT22;52586;-43.152;172.732;2022-07-06T11:59:24;14.10;55.70
65826;DHT22;52586;-43.152;172.732;2022-07-06T12:02:02;14.10;55.70
65826;DHT22;52586;-43.152;172.732;2022-07-06T12:04:34;14.10;55.80
65826;DHT22;52586;-43.152;172.732;2022-07-06T12:07:06;14.10;55.80
65826;DHT22;52586;-43.152;172.732;2022-07-06T12:09:41;14.00;55.70
65826;DHT22;52586;-43.152;172.732;2022-07-06T12:12:13;14.00;55.70
65826;DHT22;52586;-43.152;172.732;2022-07-06T12:14:46;14.00;55.70
65826;DHT22;52586;-43.152;172.732;2022-07-06T12:17:17;14.00;55.70
65826;DHT22;52586;-43.152;172.732;2022-07-06T12:19:53;14.00;55.70
65826;DHT22;52586;-43.152;172.732;2022-07-06T12:22:26;14.00;55.70
65826;DHT22;52586;-43.152;172.732;2022-07-06T12:24:57;14.00;55.70
65826;DHT22;52586;-43.152;172.732;2022-07-06T12:27:27;14.00;55.70
65826;DHT22;52586;-43.152;172.732;2022-07-06T12:30:12;14.00;55.70
65826;DHT22;52586;-43.152;172.732;2022-07-06T12:32:43;14.00;55.60
65826;DHT22;52586;-43.152;172.732;2022-07-06T12:35:14;14.00;55.60
65826;DHT22;52586;-43.152;172.732;2022-07-06T12:37:56;13.90;55.60
65826;DHT22;52586;-43.152;172.732;2022-07-06T12:40:28;13.90;55.60
65826;DHT22;52586;-43.152;172.732;2022-07-06T12:42:59;13.90;55.60
65826;DHT22;52586;-43.152;172.732;2022-07-06T12:45:32;13.90;55.60
65826;DHT22;52586;-43.152;172.732;2022-07-06T12:48:03;13.90;55.60
65826;DHT22;52586;-43.152;172.732;2022-07-06T12:50:35;13.80;55.60
65826;DHT22;52586;-43.152;172.732;2022-07-06T12:56:10;13.80;55.60
65826;DHT22;52586;-43.152;172.732;2022-07-06T12:58:49;13.80;55.60
65826;DHT22;52586;-43.152;172.732;2022-07-06T13:01:25;13.80;55.60
65826;DHT22;52586;-43.152;172.732;2022-07-06T13:03:57;13.80;55.60
65826;DHT22;52586;-43.152;172.732;2022-07-06T13:06:32;13.80;55.60
65826;DHT22;52586;-43.152;172.732;2022-07-06T13:09:04;13.70;55.60
65826;DHT22;52586;-43.152;172.732;2022-07-06T13:11:35;13.70;55.60
65826;DHT22;52586;-43.152;172.732;2022-07-06T13:14:06;13.70;55.50
65826;DHT22;52586;-43.152;172.732;2022-07-06T13:16:38;13.70;55.50
65826;DHT22;52586;-43.152;172.732;2022-07-06T13:19:09;13.70;55.50
65826;DHT22;52586;-43.152;172.732;2022-07-06T13:21:40;13.70;55.40
65826;DHT22;52586;-43.152;172.732;2022-07-06T13:24:12;13.70;56.00
65826;DHT22;52586;-43.152;172.732;2022-07-06T13:26:43;13.70;55.40
65826;DHT22;52586;-43.152;172.732;2022-07-06T13:29:14;13.70;55.40
65826;DHT22;52586;-43.152;172.732;2022-07-06T13:31:47;13.60;55.30
65826;DHT22;52586;-43.152;172.732;2022-07-06T13:34:17;13.60;55.30
65826;DHT22;52586;-43.152;172.732;2022-07-06T13:36:48;13.60;55.40
65826;DHT22;52586;-43.152;172.732;2022-07-06T13:39:19;13.60;55.30
65826;DHT22;52586;-43.152;172.732;2022-07-06T13:41:49;13.60;55.30
65826;DHT22;52586;-43.152;172.732;2022-07-06T13:44:20;13.60;55.30
65826;DHT22;52586;-43.152;172.732;2022-07-06T13:46:52;13.50;55.30
65826;DHT22;52586;-43.152;172.732;2022-07-06T13:49:23;13.50;55.30
65826;DHT22;52586;-43.152;172.732;2022-07-06T13:51:54;13.50;55.30
65826;DHT22;52586;-43.152;172.732;2022-07-06T13:54:31;13.50;55.30
65826;DHT22;52586;-43.152;172.732;2022-07-06T13:57:04;13.50;55.30
65826;DHT22;52586;-43.152;172.732;2022-07-06T13:59:35;13.50;55.20
65826;DHT22;52586;-43.152;172.732;2022-07-06T14:02:08;13.50;55.20
65826;DHT22;52586;-43.152;172.732;2022-07-06T14:04:38;13.50;55.20
65826;DHT22;52586;-43.152;172.732;2022-07-06T14:07:09;13.50;55.20
65826;DHT22;52586;-43.152;172.732;2022-07-06T14:09:40;13.50;55.10
65826;DHT22;52586;-43.152;172.732;2022-07-06T14:12:10;13.40;55.10
65826;DHT22;52586;-43.152;172.732;2022-07-06T14:14:41;13.40;55.10
65826;DHT22;52586;-43.152;172.732;2022-07-06T14:17:14;13.40;55.10
65826;DHT22;52586;-43.152;172.732;2022-07-06T14:19:44;13.40;55.10
65826;DHT22;52586;-43.152;172.732;2022-07-06T14:22:15;13.40;55.10
65826;DHT22;52586;-43.152;172.732;2022-07-06T14:24:46;13.30;55.10
65826;DHT22;52586;-43.152;172.732;2022-07-06T14:27:17;13.30;55.00
65826;DHT22;52586;-43.152;172.732;2022-07-06T14:29:47;13.30;55.00
65826;DHT22;52586;-43.152;172.732;2022-07-06T14:32:20;13.30;55.00
65826;DHT22;52586;-43.152;172.732;2022-07-06T14:34:50;13.30;55.00
65826;DHT22;52586;-43.152;172.732;2022-07-06T14:37:21;13.30;55.00
65826;DHT22;52586;-43.152;172.732;2022-07-06T14:39:52;13.30;55.00
65826;DHT22;52586;-43.152;172.732;2022-07-06T14:42:23;13.20;55.00
65826;DHT22;52586;-43.152;172.732;2022-07-06T14:44:53;13.20;55.00
65826;DHT22;52586;-43.152;172.732;2022-07-06T14:47:26;13.20;55.20
65826;DHT22;52586;-43.152;172.732;2022-07-06T14:49:57;13.20;55.00
65826;DHT22;52586;-43.152;172.732;2022-07-06T14:52:28;13.20;55.00
65826;DHT22;52586;-43.152;172.732;2022-07-06T14:55:00;13.20;54.90
65826;DHT22;52586;-43.152;172.732;2022-07-06T14:57:30;13.20;54.90
65826;DHT22;52586;-43.152;172.732;2022-07-06T15:00:01;13.20;55.00
65826;DHT22;52586;-43.152;172.732;2022-07-06T15:02:34;13.10;54.90
65826;DHT22;52586;-43.152;172.732;2022-07-06T15:05:05;13.10;54.90
65826;DHT22;52586;-43.152;172.732;2022-07-06T15:07:36;13.10;54.80
65826;DHT22;52586;-43.152;172.732;2022-07-06T15:10:08;13.10;54.80
65826;DHT22;52586;-43.152;172.732;2022-07-06T15:12:38;13.10;54.80
65826;DHT22;52586;-43.152;172.732;2022-07-06T15:15:10;13.10;54.80
65826;DHT22;52586;-43.152;172.732;2022-07-06T15:17:42;13.10;54.80
65826;DHT22;52586;-43.152;172.732;2022-07-06T15:20:13;13.00;54.70